Time,TemperatureF,DewpointF,PressureIn,WindDirection,WindDirectionDegrees,WindSpeedMPH,WindSpeedGustMPH,Humidity,HourlyPrecipIn,Conditions,Clouds,dailyrainin,SoftwareType,DateUTC
2013-01-19 00:06:00,36.3,31.6,30.38,NNE,28,0.0,0.0,83,0.00,,,0.00,Wunderground v.1.15,2013-01-19 06:06:00,
2013-01-19 00:11:00,36.2,31.5,30.39,NNE,28,0.0,0.0,83,0.00,,,0.00,Wunderground v.1.15,2013-01-19 06:11:00,
2013-01-19 00:21:00,36.1,31.4,30.39,NNE,28,0.0,0.0,83,0.00,,,0.00,Wunderground v.1.15,2013-01-19 06:21:00,
2013-01-19 00:26:00,36.1,31.4,30.39,NNE,28,0.0,0.0,83,0.00,,,0.00,Wunderground v.1.15,2013-01-19 06:26:00,
2013-01-19 00:36:00,36.0,31.3,30.39,NNE,28,0.0,0.0,83,0.00,,,0.00,Wunderground v.1.15,2013-01-19 06:36:00,
2013-01-19 00:46:00,36.0,31.3,30.38,NNE,28,0.0,0.0,83,0.00,,,0.00,Wunderground v.1.15,2013-01-19 06:46:00,
2013-01-19 00:51:00,36.0,31.3,30.39,NNE,28,0.0,0.0,83,0.00,,,0.00,Wunderground v.1.15,2013-01-19 06:51:00,
2013-01-19 00:56:00,36.0,31.3,30.39,NNE,28,0.0,0.0,83,0.00,,,0.00,Wunderground v.1.15,2013-01-19 06:56:00,
2013-01-19 01:01:00,36.0,31.3,30.39,NNE,28,0.0,0.0,83,0.00,,,0.00,Wunderground v.1.15,2013-01-19 07:01:00,
2013-01-19 01:11:00,36.0,31.3,30.39,NNE,28,0.0,0.0,83,0.00,,,0.00,Wunderground v.1.15,2013-01-19 07:11:00,
2013-01-19 01:16:00,36.0,31.3,30.39,NNE,28,0.0,0.0,83,0.00,,,0.00,Wunderground v.1.15,2013-01-19 07:16:00,
2013-01-19 01:26:00,36.0,31.3,30.39,NNE,28,0.0,0.0,83,0.00,,,0.00,Wunderground v.1.15,2013-01-19 07:26:00,
2013-01-19 01:31:00,36.0,31.3,30.39,NNE,28,0.0,0.0,83,0.00,,,0.00,Wunderground v.1.15,2013-01-19 07:31:00,
2013-01-19 01:41:00,36.0,31.3,30.39,NNE,28,0.0,0.0,83,0.00,,,0.00,Wunderground v.1.15,2013-01-19 07:41:00,
2013-01-19 01:46:00,36.0,31.3,30.39,NNE,28,0.0,0.0,83,0.00,,,0.00,Wunderground v.1.15,2013-01-19 07:46:00,
2013-01-19 01:56:00,35.9,31.2,30.39,NNE,28,0.0,0.0,83,0.00,,,0.00,Wunderground v.1.15,2013-01-19 07:56:00,
2013-01-19 02:01:00,36.0,31.3,30.38,NNE,28,0.0,0.0,83,0.00,,,0.00,Wunderground v.1.15,2013-01-19 08:01:00,
2013-01-19 02:11:00,35.9,31.2,30.39,NNE,28,0.0,0.0,83,0.00,,,0.00,Wunderground v.1.15,2013-01-19 08:11:00,
2013-01-19 02:16:00,35.9,31.2,30.39,NNE,28,0.0,0.0,83,0.00,,,0.00,Wunderground v.1.15,2013-01-19 08:16:00,
2013-01-19 02:21:00,35.9,31.2,30.39,NNE,28,0.0,0.0,83,0.00,,,0.00,Wunderground v.1.15,2013-01-19 08:21:00,
2013-01-19 02:31:00,35.8,31.1,30.38,NNE,28,0.0,0.0,83,0.00,,,0.00,Wunderground v.1.15,2013-01-19 08:31:00,
2013-01-19 02:36:00,35.8,31.1,30.38,NNE,28,0.0,0.0,83,0.00,,,0.00,Wunderground v.1.15,2013-01-19 08:36:00,
2013-01-19 02:41:00,35.8,31.1,30.38,NNE,28,0.0,0.0,83,0.00,,,0.00,Wunderground v.1.15,2013-01-19 08:41:00,
2013-01-19 02:51:00,35.8,31.1,30.38,NNE,28,0.0,0.0,83,0.00,,,0.00,Wunderground v.1.15,2013-01-19 08:51:00,
2013-01-19 02:56:00,35.8,31.4,30.38,NNE,28,0.0,0.0,84,0.00,,,0.00,Wunderground v.1.15,2013-01-19 08:56:00,
2013-01-19 03:01:00,35.9,31.5,30.38,NNE,28,0.0,0.0,84,0.00,,,0.00,Wunderground v.1.15,2013-01-19 09:01:00,
2013-01-19 03:06:00,36.0,31.6,30.38,NNE,28,0.0,0.0,84,0.00,,,0.00,Wunderground v.1.15,2013-01-19 09:06:00,
2013-01-19 03:11:00,36.0,31.6,30.38,NNE,28,0.0,0.0,84,0.00,,,0.00,Wunderground v.1.15,2013-01-19 09:11:00,
2013-01-19 03:21:00,36.2,31.8,30.38,NNE,28,0.0,0.0,84,0.00,,,0.00,Wunderground v.1.15,2013-01-19 09:21:00,
2013-01-19 03:26:00,36.4,32.0,30.38,NNE,28,0.0,0.0,84,0.00,,,0.00,Wunderground v.1.15,2013-01-19 09:26:00,
2013-01-19 03:31:00,36.6,32.2,30.37,NNE,28,0.0,0.0,84,0.00,,,0.00,Wunderground v.1.15,2013-01-19 09:31:00,
2013-01-19 03:36:00,36.7,32.3,30.37,NNE,28,0.0,0.0,84,0.00,,,0.00,Wunderground v.1.15,2013-01-19 09:36:00,
2013-01-19 03:41:00,36.9,32.5,30.37,NNE,28,0.0,0.0,84,0.00,,,0.00,Wunderground v.1.15,2013-01-19 09:41:00,
2013-01-19 03:51:00,37.4,33.0,30.37,NNE,28,0.0,0.0,84,0.00,,,0.00,Wunderground v.1.15,2013-01-19 09:51:00,
2013-01-19 03:56:00,37.5,33.1,30.37,NNE,28,0.0,0.0,84,0.00,,,0.00,Wunderground v.1.15,2013-01-19 09:56:00,
2013-01-19 04:06:00,37.9,33.5,30.37,NNE,28,0.0,0.0,84,0.00,,,0.00,Wunderground v.1.15,2013-01-19 10:06:00,
2013-01-19 04:16:00,38.2,33.8,30.36,NNE,28,0.0,0.0,84,0.00,,,0.00,Wunderground v.1.15,2013-01-19 10:16:00,
2013-01-19 04:26:00,38.5,34.1,30.37,NNE,28,0.0,0.0,84,0.00,,,0.00,Wunderground v.1.15,2013-01-19 10:26:00,
2013-01-19 04:36:00,38.8,34.4,30.37,NNE,28,0.0,0.0,84,0.00,,,0.00,Wunderground v.1.15,2013-01-19 10:36:00,
2013-01-19 04:41:00,38.9,34.8,30.37,NNE,28,0.0,0.0,85,0.00,,,0.00,Wunderground v.1.15,2013-01-19 10:41:00,
2013-01-19 04:46:00,39.0,34.9,30.37,NNE,28,0.0,0.0,85,0.00,,,0.00,Wunderground v.1.15,2013-01-19 10:46:00,
2013-01-19 04:56:00,39.2,35.1,30.37,NNE,28,0.0,0.0,85,0.00,,,0.00,Wunderground v.1.15,2013-01-19 10:56:00,
2013-01-19 05:06:00,39.3,34.9,30.37,NNE,28,0.0,0.0,84,0.00,,,0.00,Wunderground v.1.15,2013-01-19 11:06:00,
2013-01-19 05:11:00,39.2,34.8,30.36,NNE,28,0.0,0.0,84,0.00,,,0.00,Wunderground v.1.15,2013-01-19 11:11:00,
2013-01-19 06:51:00,36.7,32.3,30.37,NNE,28,0.0,0.0,84,0.00,,,0.00,Wunderground v.1.15,2013-01-19 12:51:00,
2013-01-19 06:56:00,36.6,32.2,30.38,NNE,28,0.0,0.0,84,0.00,,,0.00,Wunderground v.1.15,2013-01-19 12:56:00,
2013-01-19 07:01:00,36.5,32.1,30.38,NNE,28,0.0,0.0,84,0.00,,,0.00,Wunderground v.1.15,2013-01-19 13:01:00,
2013-01-19 07:06:00,36.5,32.1,30.38,NNE,28,0.0,0.0,84,0.00,,,0.00,Wunderground v.1.15,2013-01-19 13:06:00,
2013-01-19 07:11:00,36.5,32.1,30.39,NNE,28,0.0,0.0,84,0.00,,,0.00,Wunderground v.1.15,2013-01-19 13:11:00,
2013-01-19 07:16:00,36.5,32.1,30.39,NNE,28,0.0,0.0,84,0.00,,,0.00,Wunderground v.1.15,2013-01-19 13:16:00,
2013-01-19 07:26:00,36.6,32.2,30.39,NNE,28,0.0,0.0,84,0.00,,,0.00,Wunderground v.1.15,2013-01-19 13:26:00,
2013-01-19 07:36:00,36.8,32.7,30.39,NNE,28,0.0,0.0,85,0.00,,,0.00,Wunderground v.1.15,2013-01-19 13:36:00,
2013-01-19 07:46:00,37.2,33.1,30.39,NNE,28,0.0,0.0,85,0.00,,,0.00,Wunderground v.1.15,2013-01-19 13:46:00,
2013-01-19 07:51:00,37.4,33.3,30.39,NNE,28,0.0,0.0,85,0.00,,,0.00,Wunderground v.1.15,2013-01-19 13:51:00,
2013-01-19 08:01:00,38.0,33.9,30.39,NNE,28,0.0,0.0,85,0.00,,,0.00,Wunderground v.1.15,2013-01-19 14:01:00,
2013-01-19 08:11:00,39.3,35.2,30.39,NNE,28,0.0,0.0,85,0.00,,,0.00,Wunderground v.1.15,2013-01-19 14:11:00,
2013-01-19 08:16:00,39.9,35.8,30.39,NNE,28,0.0,0.0,85,0.00,,,0.00,Wunderground v.1.15,2013-01-19 14:16:00,
2013-01-19 08:21:00,40.5,36.3,30.39,NNE,28,0.0,0.0,85,0.00,,,0.00,Wunderground v.1.15,2013-01-19 14:21:00,
2013-01-19 08:31:00,41.5,37.3,30.39,NNE,29,0.0,0.0,85,0.00,,,0.00,Wunderground v.1.15,2013-01-19 14:31:00,
2013-01-19 08:36:00,42.1,38.2,30.39,NE,47,0.0,3.0,86,0.00,,,0.00,Wunderground v.1.15,2013-01-19 14:36:00,
2013-01-19 08:41:00,42.6,38.7,30.39,ENE,74,1.0,1.0,86,0.00,,,0.00,Wunderground v.1.15,2013-01-19 14:41:00,
2013-01-19 08:46:00,42.9,38.7,30.40,NE,46,1.0,1.0,85,0.00,,,0.00,Wunderground v.1.15,2013-01-19 14:46:00,
2013-01-19 08:56:00,44.3,40.1,30.40,NE,47,1.0,1.0,85,0.00,,,0.00,Wunderground v.1.15,2013-01-19 14:56:00,
2013-01-19 09:06:00,45.6,41.4,30.40,NE,42,1.0,3.0,85,0.00,,,0.00,Wunderground v.1.15,2013-01-19 15:06:00,
2013-01-19 09:11:00,46.6,41.4,30.40,ENE,57,2.0,2.0,82,0.00,,,0.00,Wunderground v.1.15,2013-01-19 15:11:00,
2013-01-19 09:21:00,47.9,41.4,30.41,ENE,78,1.0,1.0,78,0.00,,,0.00,Wunderground v.1.15,2013-01-19 15:21:00,
2013-01-19 09:26:00,48.6,41.0,30.41,ENE,71,1.0,1.0,75,0.00,,,0.00,Wunderground v.1.15,2013-01-19 15:26:00,
2013-01-19 09:36:00,50.3,40.1,30.41,ENE,74,1.0,3.0,68,0.00,,,0.00,Wunderground v.1.15,2013-01-19 15:36:00,
2013-01-19 09:41:00,51.1,40.9,30.40,ENE,63,1.0,1.0,68,0.00,,,0.00,Wunderground v.1.15,2013-01-19 15:41:00,
2013-01-19 09:51:00,52.5,39.8,30.39,East,87,2.0,5.0,62,0.00,,,0.00,Wunderground v.1.15,2013-01-19 15:51:00,
2013-01-19 09:56:00,53.1,39.6,30.40,ENE,76,1.0,5.0,60,0.00,,,0.00,Wunderground v.1.15,2013-01-19 15:56:00,
2013-01-19 10:01:00,53.5,40.8,30.39,ENE,74,1.0,1.0,62,0.00,,,0.00,Wunderground v.1.15,2013-01-19 16:01:00,
2013-01-19 10:11:00,54.3,40.3,30.39,NE,45,1.0,1.0,59,0.00,,,0.00,Wunderground v.1.15,2013-01-19 16:11:00,
2013-01-19 10:16:00,54.8,39.8,30.38,NE,42,2.0,2.0,57,0.00,,,0.00,Wunderground v.1.15,2013-01-19 16:16:00,
2013-01-19 10:26:00,55.6,40.6,30.38,ENE,75,2.0,2.0,57,0.00,,,0.00,Wunderground v.1.15,2013-01-19 16:26:00,
2013-01-19 10:31:00,56.1,41.1,30.39,ENE,74,2.0,2.0,57,0.00,,,0.00,Wunderground v.1.15,2013-01-19 16:31:00,
2013-01-19 10:36:00,56.6,41.1,30.38,ENE,71,1.0,2.0,56,0.00,,,0.00,Wunderground v.1.15,2013-01-19 16:36:00,
2013-01-19 10:41:00,57.0,41.4,30.38,ENE,71,0.0,0.0,56,0.00,,,0.00,Wunderground v.1.15,2013-01-19 16:41:00,
2013-01-19 10:46:00,57.4,40.9,30.38,ENE,58,1.0,1.0,54,0.00,,,0.00,Wunderground v.1.15,2013-01-19 16:46:00,
2013-01-19 10:51:00,57.7,41.2,30.37,East,90,1.0,2.0,54,0.00,,,0.00,Wunderground v.1.15,2013-01-19 16:51:00,
2013-01-19 11:01:00,58.6,42.5,30.37,NE,41,2.0,2.0,55,0.00,,,0.00,Wunderground v.1.15,2013-01-19 17:01:00,
2013-01-19 11:06:00,59.0,42.4,30.36,East,96,2.0,3.0,54,0.00,,,0.00,Wunderground v.1.15,2013-01-19 17:06:00,
2013-01-19 11:31:00,60.4,42.7,30.34,ESE,122,3.0,3.0,52,0.00,,,0.00,Wunderground v.1.15,2013-01-19 17:31:00,
2013-01-19 11:41:00,60.6,42.9,30.34,ENE,76,2.0,2.0,52,0.00,,,0.00,Wunderground v.1.15,2013-01-19 17:41:00,
2013-01-19 11:51:00,61.0,42.7,30.34,NE,40,1.0,1.0,51,0.00,,,0.00,Wunderground v.1.15,2013-01-19 17:51:00,
2013-01-19 12:16:00,62.3,42.9,30.33,NE,51,1.0,2.0,49,0.00,,,0.00,Wunderground v.1.15,2013-01-19 18:16:00,
2013-01-19 12:31:00,62.4,43.0,30.31,North,355,2.0,2.0,49,0.00,,,0.00,Wunderground v.1.15,2013-01-19 18:31:00,
2013-01-19 12:41:00,62.5,43.1,30.30,NNW,348,2.0,2.0,49,0.00,,,0.00,Wunderground v.1.15,2013-01-19 18:41:00,
2013-01-19 12:51:00,62.8,43.3,30.30,ENE,75,1.0,1.0,49,0.00,,,0.00,Wunderground v.1.15,2013-01-19 18:51:00,
2013-01-19 12:56:00,62.8,43.3,30.30,East,90,1.0,1.0,49,0.00,,,0.00,Wunderground v.1.15,2013-01-19 18:56:00,
2013-01-19 13:06:00,62.9,43.4,30.30,SSE,164,0.0,1.0,49,0.00,,,0.00,Wunderground v.1.15,2013-01-19 19:06:00,
2013-01-19 13:16:00,63.0,43.5,30.29,SSE,167,0.0,0.0,49,0.00,,,0.00,Wunderground v.1.15,2013-01-19 19:16:00,
2013-01-19 13:26:00,63.3,44.3,30.28,South,176,0.0,0.0,50,0.00,,,0.00,Wunderground v.1.15,2013-01-19 19:26:00,
2013-01-19 13:41:00,63.3,43.3,30.27,NNW,346,2.0,2.0,48,0.00,,,0.00,Wunderground v.1.15,2013-01-19 19:41:00,
2013-01-19 13:51:00,63.4,44.4,30.27,NE,50,1.0,1.0,50,0.00,,,0.00,Wunderground v.1.15,2013-01-19 19:51:00,
2013-01-19 14:01:00,63.6,45.1,30.26,NE,50,0.0,0.0,51,0.00,,,0.00,Wunderground v.1.15,2013-01-19 20:01:00,
2013-01-19 14:21:00,64.2,44.6,30.26,ENE,74,0.0,1.0,49,0.00,,,0.00,Wunderground v.1.15,2013-01-19 20:21:00,
2013-01-19 14:31:00,63.9,43.8,30.26,ENE,74,0.0,1.0,48,0.00,,,0.00,Wunderground v.1.15,2013-01-19 20:31:00,
2013-01-19 14:56:00,63.8,47.3,30.26,ENE,61,0.0,0.0,55,0.00,,,0.00,Wunderground v.1.15,2013-01-19 20:56:00,
2013-01-19 15:21:00,63.8,48.3,30.25,ENE,61,0.0,0.0,57,0.00,,,0.00,Wunderground v.1.15,2013-01-19 21:21:00,
2013-01-19 15:36:00,63.9,47.9,30.25,ENE,61,0.0,0.0,56,0.00,,,0.00,Wunderground v.1.15,2013-01-19 21:36:00,
2013-01-19 15:46:00,63.5,46.1,30.25,ENE,61,0.0,0.0,53,0.00,,,0.00,Wunderground v.1.15,2013-01-19 21:46:00,
2013-01-19 15:56:00,63.1,47.1,30.25,ENE,61,0.0,0.0,56,0.00,,,0.00,Wunderground v.1.15,2013-01-19 21:56:00,
2013-01-19 16:01:00,62.8,46.9,30.25,ENE,61,0.0,0.0,56,0.00,,,0.00,Wunderground v.1.15,2013-01-19 22:01:00,
2013-01-19 16:06:00,62.6,47.6,30.25,ENE,61,0.0,0.0,58,0.00,,,0.00,Wunderground v.1.15,2013-01-19 22:06:00,
2013-01-19 16:11:00,62.5,48.0,30.25,ENE,61,0.0,0.0,59,0.00,,,0.00,Wunderground v.1.15,2013-01-19 22:11:00,
2013-01-19 16:21:00,62.3,47.8,30.25,ENE,61,0.0,0.0,59,0.00,,,0.00,Wunderground v.1.15,2013-01-19 22:21:00,
2013-01-19 16:31:00,62.1,49.4,30.25,ENE,61,0.0,0.0,63,0.00,,,0.00,Wunderground v.1.15,2013-01-19 22:31:00,
2013-01-19 16:41:00,61.4,48.3,30.25,ENE,62,0.0,1.0,62,0.00,,,0.00,Wunderground v.1.15,2013-01-19 22:41:00,
2013-01-19 17:16:00,58.1,48.4,30.25,ENE,62,0.0,0.0,70,0.00,,,0.00,Wunderground v.1.15,2013-01-19 23:16:00,
2013-01-19 17:21:00,57.3,48.0,30.25,ENE,62,0.0,0.0,71,0.00,,,0.00,Wunderground v.1.15,2013-01-19 23:21:00,
2013-01-19 17:31:00,55.9,47.0,30.25,ENE,62,0.0,0.0,72,0.00,,,0.00,Wunderground v.1.15,2013-01-19 23:31:00,
2013-01-19 17:46:00,54.5,46.4,30.25,ENE,62,0.0,0.0,74,0.00,,,0.00,Wunderground v.1.15,2013-01-19 23:46:00,
2013-01-19 17:51:00,54.2,46.1,30.25,ENE,62,0.0,0.0,74,0.00,,,0.00,Wunderground v.1.15,2013-01-19 23:51:00,
2013-01-19 18:01:00,53.3,45.6,30.26,ENE,62,0.0,0.0,75,0.00,,,0.00,Wunderground v.1.15,2013-01-20 00:01:00,
2013-01-19 18:06:00,52.9,45.5,30.26,ENE,62,0.0,0.0,76,0.00,,,0.00,Wunderground v.1.15,2013-01-20 00:06:00,
2013-01-19 18:36:00,51.1,44.1,30.27,ENE,62,0.0,0.0,77,0.00,,,0.00,Wunderground v.1.15,2013-01-20 00:36:00,
2013-01-19 18:46:00,50.4,43.8,30.27,ENE,62,0.0,0.0,78,0.00,,,0.00,Wunderground v.1.15,2013-01-20 00:46:00,
2013-01-19 18:51:00,50.1,43.8,30.27,ENE,62,0.0,0.0,79,0.00,,,0.00,Wunderground v.1.15,2013-01-20 00:51:00,
2013-01-19 18:56:00,49.8,43.5,30.27,ENE,62,0.0,0.0,79,0.00,,,0.00,Wunderground v.1.15,2013-01-20 00:56:00,
2013-01-19 19:06:00,49.4,43.2,30.28,ENE,62,0.0,0.0,79,0.00,,,0.00,Wunderground v.1.15,2013-01-20 01:06:00,
2013-01-19 19:11:00,49.2,43.0,30.28,ENE,62,0.0,0.0,79,0.00,,,0.00,Wunderground v.1.15,2013-01-20 01:11:00,
2013-01-19 19:21:00,48.7,42.8,30.27,ENE,62,0.0,0.0,80,0.00,,,0.00,Wunderground v.1.15,2013-01-20 01:21:00,
2013-01-19 19:36:00,48.1,42.2,30.27,ENE,62,0.0,0.0,80,0.00,,,0.00,Wunderground v.1.15,2013-01-20 01:36:00,
2013-01-19 19:41:00,47.9,42.0,30.26,ENE,62,0.0,0.0,80,0.00,,,0.00,Wunderground v.1.15,2013-01-20 01:41:00,
2013-01-19 19:56:00,47.3,41.8,30.27,ENE,62,0.0,0.0,81,0.00,,,0.00,Wunderground v.1.15,2013-01-20 01:56:00,
2013-01-19 20:01:00,47.1,41.6,30.28,ENE,62,0.0,0.0,81,0.00,,,0.00,Wunderground v.1.15,2013-01-20 02:01:00,
2013-01-19 20:11:00,46.8,41.3,30.28,ENE,62,0.0,0.0,81,0.00,,,0.00,Wunderground v.1.15,2013-01-20 02:11:00,
2013-01-19 20:21:00,46.4,40.9,30.27,ENE,62,0.0,0.0,81,0.00,,,0.00,Wunderground v.1.15,2013-01-20 02:21:00,
2013-01-19 20:36:00,46.1,40.6,30.27,ENE,62,0.0,0.0,81,0.00,,,0.00,Wunderground v.1.15,2013-01-20 02:36:00,
2013-01-19 20:56:00,45.5,40.3,30.27,ENE,62,0.0,0.0,82,0.00,,,0.00,Wunderground v.1.15,2013-01-20 02:56:00,
2013-01-19 21:06:00,45.3,40.1,30.27,ENE,62,0.0,0.0,82,0.00,,,0.00,Wunderground v.1.15,2013-01-20 03:06:00,
2013-01-19 21:11:00,45.1,39.9,30.27,ENE,62,0.0,0.0,82,0.00,,,0.00,Wunderground v.1.15,2013-01-20 03:11:00,
2013-01-19 21:16:00,45.0,39.8,30.26,ENE,62,0.0,0.0,82,0.00,,,0.00,Wunderground v.1.15,2013-01-20 03:16:00,
2013-01-19 21:31:00,44.7,39.5,30.26,ENE,62,0.0,0.0,82,0.00,,,0.00,Wunderground v.1.15,2013-01-20 03:31:00,
2013-01-19 21:46:00,44.3,39.5,30.27,ENE,62,0.0,0.0,83,0.00,,,0.00,Wunderground v.1.15,2013-01-20 03:46:00,
2013-01-19 21:56:00,44.1,39.3,30.27,ENE,62,0.0,0.0,83,0.00,,,0.00,Wunderground v.1.15,2013-01-20 03:56:00,
2013-01-19 22:01:00,44.0,39.2,30.27,ENE,62,0.0,0.0,83,0.00,,,0.00,Wunderground v.1.15,2013-01-20 04:01:00,
2013-01-19 22:11:00,43.8,39.0,30.27,ENE,62,0.0,0.0,83,0.00,,,0.00,Wunderground v.1.15,2013-01-20 04:11:00,
2013-01-19 22:21:00,43.6,38.8,30.26,ENE,62,0.0,0.0,83,0.00,,,0.00,Wunderground v.1.15,2013-01-20 04:21:00,
2013-01-19 22:36:00,43.3,38.5,30.26,ENE,62,0.0,0.0,83,0.00,,,0.00,Wunderground v.1.15,2013-01-20 04:36:00,
2013-01-19 22:46:00,43.2,38.4,30.27,ENE,62,0.0,0.0,83,0.00,,,0.00,Wunderground v.1.15,2013-01-20 04:46:00,
2013-01-19 22:51:00,43.2,38.4,30.26,ENE,62,0.0,0.0,83,0.00,,,0.00,Wunderground v.1.15,2013-01-20 04:51:00,
2013-01-19 23:01:00,43.0,38.2,30.27,ENE,62,0.0,0.0,83,0.00,,,0.00,Wunderground v.1.15,2013-01-20 05:01:00,
2013-01-19 23:06:00,42.9,38.1,30.27,ENE,62,0.0,0.0,83,0.00,,,0.00,Wunderground v.1.15,2013-01-20 05:06:00,
2013-01-19 23:16:00,42.6,37.8,30.27,ENE,62,0.0,0.0,83,0.00,,,0.00,Wunderground v.1.15,2013-01-20 05:16:00,
2013-01-19 23:21:00,42.6,38.1,30.27,ENE,62,0.0,0.0,84,0.00,,,0.00,Wunderground v.1.15,2013-01-20 05:21:00,
2013-01-19 23:31:00,42.5,37.7,30.27,ENE,62,0.0,0.0,83,0.00,,,0.00,Wunderground v.1.15,2013-01-20 05:31:00,
2013-01-19 23:36:00,42.4,37.6,30.27,ENE,62,0.0,0.0,83,0.00,,,0.00,Wunderground v.1.15,2013-01-20 05:36:00,
2013-01-19 23:41:00,42.4,37.9,30.27,ENE,62,0.0,0.0,84,0.00,,,0.00,Wunderground v.1.15,2013-01-20 05:41:00,
2013-01-19 23:46:00,42.3,37.8,30.28,ENE,62,0.0,0.0,84,0.00,,,0.00,Wunderground v.1.15,2013-01-20 05:46:00,
2013-01-19 23:56:00,42.1,37.6,30.27,ENE,62,0.0,0.0,84,0.00,,,0.00,Wunderground v.1.15,2013-01-20 05:56:00,